sensor_id;sensor_type;location;lat;lon;timestamp;temperature;humidity
71436;SHT31;59251;51.326;12.370;2023-04-03T00:00:05;2.37;79.66
71436;SHT31;59251;51.326;12.370;2023-04-03T00:02:32;2.31;79.90
71436;SHT31;59251;51.326;12.370;2023-04-03T00:04:57;2.30;79.68
71436;SHT31;59251;51.326;12.370;2023-04-03T00:07:22;2.21;80.23
71436;SHT31;59251;51.326;12.370;2023-04-03T00:09:48;2.31;79.89
71436;SHT31;59251;51.326;12.370;2023-04-03T00:12:13;2.14;80.25
71436;SHT31;59251;51.326;12.370;2023-04-03T00:14:38;2.27;79.83
71436;SHT31;59251;51.326;12.370;2023-04-03T00:17:04;2.14;80.51
71436;SHT31;59251;51.326;12.370;2023-04-03T00:19:30;2.11;80.43
71436;SHT31;59251;51.326;12.370;2023-04-03T00:21:55;2.17;80.31
71436;SHT31;59251;51.326;12.370;2023-04-03T00:24:20;2.20;80.65
71436;SHT31;59251;51.326;12.370;2023-04-03T00:26:46;2.22;80.34
71436;SHT31;59251;51.326;12.370;2023-04-03T00:29:11;2.25;80.04
71436;SHT31;59251;51.326;12.370;2023-04-03T00:31:36;2.14;80.07
71436;SHT31;59251;51.326;12.370;2023-04-03T00:34:02;2.17;79.73
71436;SHT31;59251;51.326;12.370;2023-04-03T00:36:27;2.09;80.10
71436;SHT31;59251;51.326;12.370;2023-04-03T00:38:53;2.04;80.35
71436;SHT31;59251;51.326;12.370;2023-04-03T00:41:18;2.01;80.41
71436;SHT31;59251;51.326;12.370;2023-04-03T00:43:43;1.94;80.63
71436;SHT31;59251;51.326;12.370;2023-04-03T00:46:10;1.94;80.69
71436;SHT31;59251;51.326;12.370;2023-04-03T00:48:41;1.84;80.81
71436;SHT31;59251;51.326;12.370;2023-04-03T00:51:12;1.84;80.77
71436;SHT31;59251;51.326;12.370;2023-04-03T00:54:07;1.87;80.21
71436;SHT31;59251;51.326;12.370;2023-04-03T00:56:33;1.67;80.87
71436;SHT31;59251;51.326;12.370;2023-04-03T00:59:06;1.62;81.60
71436;SHT31;59251;51.326;12.370;2023-04-03T01:01:33;1.55;81.51
71436;SHT31;59251;51.326;12.370;2023-04-03T01:04:00;1.48;81.73
71436;SHT31;59251;51.326;12.370;2023-04-03T01:06:30;1.48;81.68
71436;SHT31;59251;51.326;12.370;2023-04-03T01:08:59;1.45;81.74
71436;SHT31;59251;51.326;12.370;2023-04-03T01:11:25;1.31;82.41
71436;SHT31;59251;51.326;12.370;2023-04-03T01:13:51;1.35;82.34
71436;SHT31;59251;51.326;12.370;2023-04-03T01:16:17;1.28;82.64
71436;SHT31;59251;51.326;12.370;2023-04-03T01:18:43;1.24;82.74
71436;SHT31;59251;51.326;12.370;2023-04-03T01:26:27;1.20;83.70
71436;SHT31;59251;51.326;12.370;2023-04-03T01:28:54;1.13;83.53
71436;SHT31;59251;51.326;12.370;2023-04-03T01:31:26;1.03;83.79
71436;SHT31;59251;51.326;12.370;2023-04-03T01:33:53;1.01;83.96
71436;SHT31;59251;51.326;12.370;2023-04-03T01:36:22;0.98;84.17
71436;SHT31;59251;51.326;12.370;2023-04-03T01:38:50;0.97;83.76
71436;SHT31;59251;51.326;12.370;2023-04-03T01:41:16;0.94;83.66
71436;SHT31;59251;51.326;12.370;2023-04-03T01:43:42;0.86;84.49
71436;SHT31;59251;51.326;12.370;2023-04-03T01:46:07;0.79;84.58
71436;SHT31;59251;51.326;12.370;2023-04-03T01:48:33;0.75;84.66
71436;SHT31;59251;51.326;12.370;2023-04-03T01:50:58;0.73;84.74
71436;SHT31;59251;51.326;12.370;2023-04-03T01:53:24;0.72;85.01
71436;SHT31;59251;51.326;12.370;2023-04-03T01:55:49;0.76;84.92
71436;SHT31;59251;51.326;12.370;2023-04-03T01:58:14;0.76;85.23
71436;SHT31;59251;51.326;12.370;2023-04-03T02:00:40;0.76;84.34
71436;SHT31;59251;51.326;12.370;2023-04-03T02:03:05;0.66;84.67
71436;SHT31;59251;51.326;12.370;2023-04-03T02:05:32;0.69;85.10
71436;SHT31;59251;51.326;12.370;2023-04-03T02:07:57;0.69;84.98
71436;SHT31;59251;51.326;12.370;2023-04-03T02:10:23;0.57;85.35
71436;SHT31;59251;51.326;12.370;2023-04-03T02:12:48;0.73;84.78
71436;SHT31;59251;51.326;12.370;2023-04-03T02:15:13;0.72;85.06
71436;SHT31;59251;51.326;12.370;2023-04-03T02:17:39;0.76;84.86
71436;SHT31;59251;51.326;12.370;2023-04-03T02:20:05;0.75;84.95
71436;SHT31;59251;51.326;12.370;2023-04-03T02:22:30;0.63;85.36
71436;SHT31;59251;51.326;12.370;2023-04-03T02:24:56;0.66;85.61
71436;SHT31;59251;51.326;12.370;2023-04-03T02:27:21;0.48;85.59
71436;SHT31;59251;51.326;12.370;2023-04-03T02:29:47;0.62;85.31
71436;SHT31;59251;51.326;12.370;2023-04-03T02:32:12;0.56;85.74
71436;SHT31;59251;51.326;12.370;2023-04-03T02:34:37;0.48;85.74
71436;SHT31;59251;51.326;12.370;2023-04-03T02:37:03;0.48;86.07
71436;SHT31;59251;51.326;12.370;2023-04-03T02:39:28;0.44;86.19
71436;SHT31;59251;51.326;12.370;2023-04-03T02:41:53;0.39;86.27
71436;SHT31;59251;51.326;12.370;2023-04-03T02:44:19;0.53;86.02
71436;SHT31;59251;51.326;12.370;2023-04-03T02:46:44;0.32;86.19
71436;SHT31;59251;51.326;12.370;2023-04-03T02:49:09;0.30;86.55
71436;SHT31;59251;51.326;12.370;2023-04-03T02:51:35;0.29;86.96
71436;SHT31;59251;51.326;12.370;2023-04-03T02:54:00;0.32;87.01
71436;SHT31;59251;51.326;12.370;2023-04-03T02:56:26;0.29;86.81
71436;SHT31;59251;51.326;12.370;2023-04-03T02:58:52;0.22;87.46
71436;SHT31;59251;51.326;12.370;2023-04-03T03:01:17;0.21;87.66
71436;SHT31;59251;51.326;12.370;2023-04-03T03:03:43;0.17;87.42
71436;SHT31;59251;51.326;12.370;2023-04-03T03:06:13;0.09;87.30
71436;SHT31;59251;51.326;12.370;2023-04-03T03:08:39;0.14;87.42
71436;SHT31;59251;51.326;12.370;2023-04-03T03:11:05;-0.02;87.40
71436;SHT31;59251;51.326;12.370;2023-04-03T03:13:31;0.05;87.71
71436;SHT31;59251;51.326;12.370;2023-04-03T03:15:57;0.01;87.39
71436;SHT31;59251;51.326;12.370;2023-04-03T03:18:22;-0.10;87.80
71436;SHT31;59251;51.326;12.370;2023-04-03T03:20:55;-0.24;88.48
71436;SHT31;59251;51.326;12.370;2023-04-03T03:23:22;-0.26;88.65
71436;SHT31;59251;51.326;12.370;2023-04-03T03:25:48;-0.38;88.87
71436;SHT31;59251;51.326;12.370;2023-04-03T03:28:13;-0.41;89.19
71436;SHT31;59251;51.326;12.370;2023-04-03T03:30:38;-0.40;89.18
71436;SHT31;59251;51.326;12.370;2023-04-03T03:33:04;-0.58;89.73
71436;SHT31;59251;51.326;12.370;2023-04-03T03:35:29;-0.60;90.00
71436;SHT31;59251;51.326;12.370;2023-04-03T03:37:55;-0.65;90.17
71436;SHT31;59251;51.326;12.370;2023-04-03T03:40:21;-0.78;90.46
71436;SHT31;59251;51.326;12.370;2023-04-03T03:42:46;-0.81;90.64
71436;SHT31;59251;51.326;12.370;2023-04-03T03:45:11;-0.67;90.49
71436;SHT31;59251;51.326;12.370;2023-04-03T03:47:36;-0.68;90.34
71436;SHT31;59251;51.326;12.370;2023-04-03T03:50:03;-0.74;90.55
71436;SHT31;59251;51.326;12.370;2023-04-03T03:52:28;-0.67;90.40
71436;SHT31;59251;51.326;12.370;2023-04-03T03:54:55;-0.78;90.56
71436;SHT31;59251;51.326;12.370;2023-04-03T03:57:21;-0.69;90.52
71436;SHT31;59251;51.326;12.370;2023-04-03T03:59:46;-0.71;90.29
71436;SHT31;59251;51.326;12.370;2023-04-03T04:02:12;-0.79;90.63
71436;SHT31;59251;51.326;12.370;2023-04-03T04:04:38;-0.75;90.17
71436;SHT31;59251;51.326;12.370;2023-04-03T04:07:03;-0.77;90.46
71436;SHT31;59251;51.326;12.370;2023-04-03T04:09:29;-0.82;90.47
71436;SHT31;59251;51.326;12.370;2023-04-03T04:11:54;-0.77;90.55
71436;SHT31;59251;51.326;12.370;2023-04-03T04:14:19;-0.82;90.46
71436;SHT31;59251;51.326;12.370;2023-04-03T04:16:48;-0.84;90.38
71436;SHT31;59251;51.326;12.370;2023-04-03T04:19:14;-0.85;90.35
71436;SHT31;59251;51.326;12.370;2023-04-03T04:21:39;-0.86;90.83
71436;SHT31;59251;51.326;12.370;2023-04-03T04:24:05;-0.92;90.70
71436;SHT31;59251;51.326;12.370;2023-04-03T04:26:31;-0.79;90.51
71436;SHT31;59251;51.326;12.370;2023-04-03T04:28:56;-0.95;90.55
71436;SHT31;59251;51.326;12.370;2023-04-03T04:31:22;-1.02;90.82
71436;SHT31;59251;51.326;12.370;2023-04-03T04:33:47;-0.82;90.21
71436;SHT31;59251;51.326;12.370;2023-04-03T04:36:12;-0.86;90.23
71436;SHT31;59251;51.326;12.370;2023-04-03T04:38:39;-0.91;90.65
71436;SHT31;59251;51.326;12.370;2023-04-03T04:41:05;-0.92;90.40
71436;SHT31;59251;51.326;12.370;2023-04-03T04:43:30;-0.92;90.20
71436;SHT31;59251;51.326;12.370;2023-04-03T04:46:04;-1.02;90.62
71436;SHT31;59251;51.326;12.370;2023-04-03T04:48:29;-1.06;91.21
71436;SHT31;59251;51.326;12.370;2023-04-03T04:50:55;-1.09;90.95
71436;SHT31;59251;51.326;12.370;2023-04-03T04:53:20;-1.02;90.80
71436;SHT31;59251;51.326;12.370;2023-04-03T04:55:46;-0.89;90.17
71436;SHT31;59251;51.326;12.370;2023-04-03T04:58:11;-0.86;89.76
71436;SHT31;59251;51.326;12.370;2023-04-03T05:00:36;-0.88;89.65
71436;SHT31;59251;51.326;12.370;2023-04-03T05:03:02;-0.82;89.04
71436;SHT31;59251;51.326;12.370;2023-04-03T05:05:27;-0.77;89.42
71436;SHT31;59251;51.326;12.370;2023-04-03T05:07:53;-0.72;88.67
71436;SHT31;59251;51.326;12.370;2023-04-03T05:10:18;-0.78;88.83
71436;SHT31;59251;51.326;12.370;2023-04-03T05:12:44;-0.77;88.83
71436;SHT31;59251;51.326;12.370;2023-04-03T05:15:09;-0.72;88.28
71436;SHT31;59251;51.326;12.370;2023-04-03T05:17:35;-0.67;88.13
71436;SHT31;59251;51.326;12.370;2023-04-03T05:20:01;-0.60;88.00
71436;SHT31;59251;51.326;12.370;2023-04-03T05:22:27;-0.53;87.96
71436;SHT31;59251;51.326;12.370;2023-04-03T05:24:52;-0.44;87.40
71436;SHT31;59251;51.326;12.370;2023-04-03T05:27:17;-0.45;86.73
71436;SHT31;59251;51.326;12.370;2023-04-03T05:29:43;-0.34;86.59
71436;SHT31;59251;51.326;12.370;2023-04-03T05:32:10;-0.37;86.49
71436;SHT31;59251;51.326;12.370;2023-04-03T05:34:35;-0.23;86.58
71436;SHT31;59251;51.326;12.370;2023-04-03T05:37:01;-0.10;86.72
71436;SHT31;59251;51.326;12.370;2023-04-03T05:39:28;0.18;87.73
71436;SHT31;59251;51.326;12.370;2023-04-03T05:41:53;0.01;85.31
71436;SHT31;59251;51.326;12.370;2023-04-03T05:44:19;-0.03;84.70
71436;SHT31;59251;51.326;12.370;2023-04-03T05:46:44;0.00;84.55
71436;SHT31;59251;51.326;12.370;2023-04-03T05:49:09;0.04;84.54
71436;SHT31;59251;51.326;12.370;2023-04-03T05:51:39;0.09;84.35
71436;SHT31;59251;51.326;12.370;2023-04-03T05:54:18;0.14;84.49
71436;SHT31;59251;51.326;12.370;2023-04-03T05:56:44;0.46;83.67
71436;SHT31;59251;51.326;12.370;2023-04-03T05:59:10;0.45;83.37
71436;SHT31;59251;51.326;12.370;2023-04-03T06:01:36;0.56;83.16
71436;SHT31;59251;51.326;12.370;2023-04-03T06:04:02;0.90;82.13
71436;SHT31;59251;51.326;12.370;2023-04-03T06:06:52;1.17;80.97
71436;SHT31;59251;51.326;12.370;2023-04-03T06:09:19;1.38;80.42
71436;SHT31;59251;51.326;12.370;2023-04-03T06:11:44;1.21;80.27
71436;SHT31;59251;51.326;12.370;2023-04-03T06:14:10;1.45;79.40
71436;SHT31;59251;51.326;12.370;2023-04-03T06:16:36;1.03;80.10
71436;SHT31;59251;51.326;12.370;2023-04-03T06:19:02;1.00;81.38
71436;SHT31;59251;51.326;12.370;2023-04-03T06:21:27;1.04;81.03
71436;SHT31;59251;51.326;12.370;2023-04-03T06:23:53;1.55;79.56
71436;SHT31;59251;51.326;12.370;2023-04-03T06:26:18;1.38;79.01
71436;SHT31;59251;51.326;12.370;2023-04-03T06:28:43;1.73;78.40
71436;SHT31;59251;51.326;12.370;2023-04-03T06:31:09;1.49;79.79
71436;SHT31;59251;51.326;12.370;2023-04-03T06:33:34;0.96;80.31
71436;SHT31;59251;51.326;12.370;2023-04-03T06:36:04;1.25;80.58
71436;SHT31;59251;51.326;12.370;2023-04-03T06:38:29;1.36;79.82
71436;SHT31;59251;51.326;12.370;2023-04-03T06:40:55;1.48;79.52
71436;SHT31;59251;51.326;12.370;2023-04-03T06:43:21;1.58;79.71
71436;SHT31;59251;51.326;12.370;2023-04-03T06:45:47;1.56;79.27
71436;SHT31;59251;51.326;12.370;2023-04-03T06:48:12;1.53;79.46
71436;SHT31;59251;51.326;12.370;2023-04-03T06:50:38;1.72;78.63
71436;SHT31;59251;51.326;12.370;2023-04-03T06:53:03;1.83;78.54
71436;SHT31;59251;51.326;12.370;2023-04-03T06:55:29;1.83;78.39
71436;SHT31;59251;51.326;12.370;2023-04-03T06:57:54;1.52;78.43
71436;SHT31;59251;51.326;12.370;2023-04-03T07:00:20;1.60;78.42
71436;SHT31;59251;51.326;12.370;2023-04-03T07:02:46;1.80;78.55
71436;SHT31;59251;51.326;12.370;2023-04-03T07:05:12;1.51;77.48
71436;SHT31;59251;51.326;12.370;2023-04-03T07:07:37;1.86;77.93
71436;SHT31;59251;51.326;12.370;2023-04-03T07:10:04;1.89;76.88
71436;SHT31;59251;51.326;12.370;2023-04-03T07:12:29;1.76;76.78
71436;SHT31;59251;51.326;12.370;2023-04-03T07:14:55;1.77;76.31
71436;SHT31;59251;51.326;12.370;2023-04-03T07:17:20;1.72;76.04
71436;SHT31;59251;51.326;12.370;2023-04-03T07:19:46;2.00;76.22
71436;SHT31;59251;51.326;12.370;2023-04-03T07:22:11;1.87;74.13
71436;SHT31;59251;51.326;12.370;2023-04-03T07:24:37;1.82;74.58
71436;SHT31;59251;51.326;12.370;2023-04-03T07:27:02;2.07;74.28
71436;SHT31;59251;51.326;12.370;2023-04-03T07:29:28;2.24;73.89
71436;SHT31;59251;51.326;12.370;2023-04-03T07:31:53;2.31;73.28
71436;SHT31;59251;51.326;12.370;2023-04-03T07:34:20;2.52;72.21
71436;SHT31;59251;51.326;12.370;2023-04-03T07:36:46;2.52;71.62
71436;SHT31;59251;51.326;12.370;2023-04-03T07:39:11;2.37;73.54
71436;SHT31;59251;51.326;12.370;2023-04-03T07:41:36;2.35;72.93
71436;SHT31;59251;51.326;12.370;2023-04-03T07:44:03;2.46;72.45
71436;SHT31;59251;51.326;12.370;2023-04-03T07:46:30;2.37;72.57
71436;SHT31;59251;51.326;12.370;2023-04-03T07:48:56;2.63;72.28
71436;SHT31;59251;51.326;12.370;2023-04-03T07:51:21;2.56;71.96
71436;SHT31;59251;51.326;12.370;2023-04-03T07:53:47;2.32;72.90
71436;SHT31;59251;51.326;12.370;2023-04-03T07:56:12;2.51;72.84
71436;SHT31;59251;51.326;12.370;2023-04-03T07:58:37;2.27;73.14
71436;SHT31;59251;51.326;12.370;2023-04-03T08:01:03;2.52;72.29
71436;SHT31;59251;51.326;12.370;2023-04-03T08:03:29;2.32;71.94
71436;SHT31;59251;51.326;12.370;2023-04-03T08:05:54;2.22;72.44
71436;SHT31;59251;51.326;12.370;2023-04-03T08:08:23;2.28;73.30
71436;SHT31;59251;51.326;12.370;2023-04-03T08:10:52;2.41;72.63
71436;SHT31;59251;51.326;12.370;2023-04-03T08:13:18;2.71;71.57
71436;SHT31;59251;51.326;12.370;2023-04-03T08:15:44;2.58;71.20
71436;SHT31;59251;51.326;12.370;2023-04-03T08:18:09;2.71;71.08
71436;SHT31;59251;51.326;12.370;2023-04-03T08:20:35;3.04;70.40
71436;SHT31;59251;51.326;12.370;2023-04-03T08:23:01;3.00;70.25
71436;SHT31;59251;51.326;12.370;2023-04-03T08:25:26;2.99;70.06
71436;SHT31;59251;51.326;12.370;2023-04-03T08:27:52;3.07;69.52
71436;SHT31;59251;51.326;12.370;2023-04-03T08:30:18;2.92;69.56
71436;SHT31;59251;51.326;12.370;2023-04-03T08:32:43;3.07;70.72
71436;SHT31;59251;51.326;12.370;2023-04-03T08:35:09;2.82;71.14
71436;SHT31;59251;51.326;12.370;2023-04-03T08:37:36;3.23;70.80
71436;SHT31;59251;51.326;12.370;2023-04-03T08:40:04;3.39;69.15
71436;SHT31;59251;51.326;12.370;2023-04-03T08:42:39;3.31;68.14
71436;SHT31;59251;51.326;12.370;2023-04-03T08:48:36;3.37;67.25
71436;SHT31;59251;51.326;12.370;2023-04-03T08:50:58;3.24;66.14
71436;SHT31;59251;51.326;12.370;2023-04-03T08:53:30;3.55;64.49
71436;SHT31;59251;51.326;12.370;2023-04-03T08:55:58;3.81;63.87
71436;SHT31;59251;51.326;12.370;2023-04-03T08:58:44;4.10;63.47
71436;SHT31;59251;51.326;12.370;2023-04-03T09:01:20;4.50;64.27
71436;SHT31;59251;51.326;12.370;2023-04-03T09:03:46;4.96;62.67
71436;SHT31;59251;51.326;12.370;2023-04-03T09:06:25;4.69;62.43
71436;SHT31;59251;51.326;12.370;2023-04-03T09:09:15;4.71;62.26
71436;SHT31;59251;51.326;12.370;2023-04-03T09:14:59;4.34;61.16
71436;SHT31;59251;51.326;12.370;2023-04-03T09:23:55;3.82;62.92
71436;SHT31;59251;51.326;12.370;2023-04-03T09:26:05;3.97;62.40
71436;SHT31;59251;51.326;12.370;2023-04-03T09:28:35;3.97;61.10
71436;SHT31;59251;51.326;12.370;2023-04-03T09:31:18;3.97;60.83
71436;SHT31;59251;51.326;12.370;2023-04-03T09:33:44;4.10;60.28
71436;SHT31;59251;51.326;12.370;2023-04-03T09:36:10;4.10;61.16
71436;SHT31;59251;51.326;12.370;2023-04-03T09:38:36;4.13;61.59
71436;SHT31;59251;51.326;12.370;2023-04-03T09:43:34;4.02;62.89
71436;SHT31;59251;51.326;12.370;2023-04-03T09:46:32;4.07;63.48
71436;SHT31;59251;51.326;12.370;2023-04-03T09:49:03;4.45;61.74
71436;SHT31;59251;51.326;12.370;2023-04-03T09:51:30;4.00;60.25
71436;SHT31;59251;51.326;12.370;2023-04-03T09:53:57;4.36;60.98
71436;SHT31;59251;51.326;12.370;2023-04-03T09:56:27;4.32;60.53
71436;SHT31;59251;51.326;12.370;2023-04-03T10:01:37;4.43;60.00
71436;SHT31;59251;51.326;12.370;2023-04-03T10:06:34;3.96;59.89
71436;SHT31;59251;51.326;12.370;2023-04-03T10:09:10;4.29;61.32
71436;SHT31;59251;51.326;12.370;2023-04-03T10:11:57;4.32;61.23
71436;SHT31;59251;51.326;12.370;2023-04-03T10:14:23;4.21;61.54
71436;SHT31;59251;51.326;12.370;2023-04-03T10:19:42;4.00;61.29
71436;SHT31;59251;51.326;12.370;2023-04-03T10:27:42;4.10;61.43
71436;SHT31;59251;51.326;12.370;2023-04-03T10:38:27;4.62;59.41
71436;SHT31;59251;51.326;12.370;2023-04-03T10:41:09;4.27;59.71
71436;SHT31;59251;51.326;12.370;2023-04-03T10:44:20;4.29;59.69
71436;SHT31;59251;51.326;12.370;2023-04-03T10:46:49;4.67;58.83
71436;SHT31;59251;51.326;12.370;2023-04-03T10:49:45;4.65;58.76
71436;SHT31;59251;51.326;12.370;2023-04-03T10:52:25;5.16;58.31
71436;SHT31;59251;51.326;12.370;2023-04-03T10:55:31;5.52;57.26
71436;SHT31;59251;51.326;12.370;2023-04-03T10:57:59;5.30;57.44
71436;SHT31;59251;51.326;12.370;2023-04-03T11:00:46;5.48;58.06
71436;SHT31;59251;51.326;12.370;2023-04-03T11:03:17;5.88;57.86
71436;SHT31;59251;51.326;12.370;2023-04-03T11:05:52;5.58;56.44
71436;SHT31;59251;51.326;12.370;2023-04-03T11:08:35;6.12;55.17
71436;SHT31;59251;51.326;12.370;2023-04-03T11:11:09;5.89;55.13
71436;SHT31;59251;51.326;12.370;2023-04-03T11:13:49;6.10;55.12
71436;SHT31;59251;51.326;12.370;2023-04-03T11:16:19;6.84;53.83
71436;SHT31;59251;51.326;12.370;2023-04-03T11:19:10;7.09;52.83
71436;SHT31;59251;51.326;12.370;2023-04-03T11:21:42;6.15;53.28
71436;SHT31;59251;51.326;12.370;2023-04-03T11:24:20;5.89;54.48
71436;SHT31;59251;51.326;12.370;2023-04-03T11:26:49;5.81;55.14
71436;SHT31;59251;51.326;12.370;2023-04-03T11:29:20;5.26;56.15
71436;SHT31;59251;51.326;12.370;2023-04-03T11:32:17;5.46;57.23
71436;SHT31;59251;51.326;12.370;2023-04-03T11:34:49;5.79;55.30
71436;SHT31;59251;51.326;12.370;2023-04-03T11:37:27;5.91;54.95
71436;SHT31;59251;51.326;12.370;2023-04-03T11:39:59;6.29;54.77
71436;SHT31;59251;51.326;12.370;2023-04-03T11:42:38;7.20;53.84
71436;SHT31;59251;51.326;12.370;2023-04-03T11:50:43;6.56;54.73
71436;SHT31;59251;51.326;12.370;2023-04-03T11:58:26;6.61;53.66
71436;SHT31;59251;51.326;12.370;2023-04-03T12:05:55;9.69;46.35
71436;SHT31;59251;51.326;12.370;2023-04-03T12:08:30;10.66;43.30
71436;SHT31;59251;51.326;12.370;2023-04-03T12:16:33;6.08;53.48
71436;SHT31;59251;51.326;12.370;2023-04-03T12:19:30;6.64;52.24
71436;SHT31;59251;51.326;12.370;2023-04-03T12:24:32;9.94;46.29
71436;SHT31;59251;51.326;12.370;2023-04-03T12:27:21;9.65;45.05
71436;SHT31;59251;51.326;12.370;2023-04-03T12:35:50;7.19;52.49
71436;SHT31;59251;51.326;12.370;2023-04-03T12:38:40;6.99;53.07
71436;SHT31;59251;51.326;12.370;2023-04-03T12:41:38;7.05;51.48
71436;SHT31;59251;51.326;12.370;2023-04-03T12:44:40;7.32;50.33
71436;SHT31;59251;51.326;12.370;2023-04-03T12:49:49;8.09;50.19
71436;SHT31;59251;51.326;12.370;2023-04-03T12:54:50;6.89;53.67
71436;SHT31;59251;51.326;12.370;2023-04-03T12:59:42;6.91;53.15
71436;SHT31;59251;51.326;12.370;2023-04-03T13:02:31;6.78;53.15
71436;SHT31;59251;51.326;12.370;2023-04-03T13:04:58;6.91;53.95
71436;SHT31;59251;51.326;12.370;2023-04-03T13:07:32;7.06;53.01
71436;SHT31;59251;51.326;12.370;2023-04-03T13:10:15;6.99;52.42
71436;SHT31;59251;51.326;12.370;2023-04-03T13:15:17;7.09;51.34
71436;SHT31;59251;51.326;12.370;2023-04-03T13:17:43;6.33;52.23
71436;SHT31;59251;51.326;12.370;2023-04-03T13:20:14;6.67;53.47
71436;SHT31;59251;51.326;12.370;2023-04-03T13:25:14;6.67;52.36
71436;SHT31;59251;51.326;12.370;2023-04-03T13:27:40;6.71;52.69
71436;SHT31;59251;51.326;12.370;2023-04-03T13:33:22;6.77;53.19
71436;SHT31;59251;51.326;12.370;2023-04-03T13:35:55;6.89;52.49
71436;SHT31;59251;51.326;12.370;2023-04-03T13:38:26;6.98;52.39
71436;SHT31;59251;51.326;12.370;2023-04-03T13:40:54;6.73;51.69
71436;SHT31;59251;51.326;12.370;2023-04-03T13:43:24;6.71;51.49
71436;SHT31;59251;51.326;12.370;2023-04-03T13:48:44;7.33;50.82
71436;SHT31;59251;51.326;12.370;2023-04-03T13:53:51;7.11;51.48
71436;SHT31;59251;51.326;12.370;2023-04-03T13:56:21;7.16;50.95
71436;SHT31;59251;51.326;12.370;2023-04-03T14:01:23;7.46;50.28
71436;SHT31;59251;51.326;12.370;2023-04-03T14:03:57;7.20;50.52
71436;SHT31;59251;51.326;12.370;2023-04-03T14:06:23;7.16;50.04
71436;SHT31;59251;51.326;12.370;2023-04-03T14:08:49;6.84;51.23
71436;SHT31;59251;51.326;12.370;2023-04-03T14:11:20;6.05;54.48
71436;SHT31;59251;51.326;12.370;2023-04-03T14:13:48;5.94;54.67
71436;SHT31;59251;51.326;12.370;2023-04-03T14:16:16;6.32;54.45
71436;SHT31;59251;51.326;12.370;2023-04-03T14:18:44;6.27;54.65
71436;SHT31;59251;51.326;12.370;2023-04-03T14:21:14;6.44;54.57
71436;SHT31;59251;51.326;12.370;2023-04-03T14:23:40;5.84;54.95
71436;SHT31;59251;51.326;12.370;2023-04-03T14:26:23;5.84;54.87
71436;SHT31;59251;51.326;12.370;2023-04-03T14:28:52;5.89;54.59
71436;SHT31;59251;51.326;12.370;2023-04-03T14:31:18;5.75;54.60
71436;SHT31;59251;51.326;12.370;2023-04-03T14:33:45;5.99;55.57
71436;SHT31;59251;51.326;12.370;2023-04-03T14:36:18;6.08;53.73
71436;SHT31;59251;51.326;12.370;2023-04-03T14:38:45;6.03;54.29
71436;SHT31;59251;51.326;12.370;2023-04-03T14:41:16;5.48;55.40
71436;SHT31;59251;51.326;12.370;2023-04-03T14:43:43;5.91;55.00
71436;SHT31;59251;51.326;12.370;2023-04-03T14:46:17;5.89;54.37
71436;SHT31;59251;51.326;12.370;2023-04-03T14:48:43;6.02;53.85
71436;SHT31;59251;51.326;12.370;2023-04-03T14:51:11;5.81;54.44
71436;SHT31;59251;51.326;12.370;2023-04-03T14:53:36;5.30;55.31
71436;SHT31;59251;51.326;12.370;2023-04-03T14:56:09;5.30;55.56
71436;SHT31;59251;51.326;12.370;2023-04-03T14:58:35;5.44;55.06
71436;SHT31;59251;51.326;12.370;2023-04-03T15:01:02;5.57;54.30
71436;SHT31;59251;51.326;12.370;2023-04-03T15:03:27;5.03;55.47
71436;SHT31;59251;51.326;12.370;2023-04-03T15:05:53;5.26;55.32
71436;SHT31;59251;51.326;12.370;2023-04-03T15:08:24;5.74;54.56
71436;SHT31;59251;51.326;12.370;2023-04-03T15:10:50;5.61;54.56
71436;SHT31;59251;51.326;12.370;2023-04-03T15:13:18;5.47;54.15
71436;SHT31;59251;51.326;12.370;2023-04-03T15:15:44;5.33;54.80
71436;SHT31;59251;51.326;12.370;2023-04-03T15:18:24;5.30;55.40
71436;SHT31;59251;51.326;12.370;2023-04-03T15:20:52;5.64;54.70
71436;SHT31;59251;51.326;12.370;2023-04-03T15:23:17;5.65;53.93
71436;SHT31;59251;51.326;12.370;2023-04-03T15:25:45;5.40;53.61
71436;SHT31;59251;51.326;12.370;2023-04-03T15:28:38;5.64;53.85
71436;SHT31;59251;51.326;12.370;2023-04-03T15:31:05;5.24;53.89
71436;SHT31;59251;51.326;12.370;2023-04-03T15:33:34;4.72;54.93
71436;SHT31;59251;51.326;12.370;2023-04-03T15:35:59;4.78;54.69
71436;SHT31;59251;51.326;12.370;2023-04-03T15:38:25;4.81;54.90
71436;SHT31;59251;51.326;12.370;2023-04-03T15:40:51;4.85;55.68
71436;SHT31;59251;51.326;12.370;2023-04-03T15:43:16;4.72;55.49
71436;SHT31;59251;51.326;12.370;2023-04-03T15:45:42;4.60;55.75
71436;SHT31;59251;51.326;12.370;2023-04-03T15:48:09;4.65;55.87
71436;SHT31;59251;51.326;12.370;2023-04-03T15:50:35;4.54;56.01
71436;SHT31;59251;51.326;12.370;2023-04-03T15:53:00;4.43;56.28
71436;SHT31;59251;51.326;12.370;2023-04-03T15:55:29;4.40;56.25
71436;SHT31;59251;51.326;12.370;2023-04-03T15:57:55;4.62;56.64
71436;SHT31;59251;51.326;12.370;2023-04-03T16:00:21;4.36;56.99
71436;SHT31;59251;51.326;12.370;2023-04-03T16:02:50;4.57;57.10
71436;SHT31;59251;51.326;12.370;2023-04-03T16:05:16;4.76;55.22
71436;SHT31;59251;51.326;12.370;2023-04-03T16:07:43;4.44;55.79
71436;SHT31;59251;51.326;12.370;2023-04-03T16:10:10;4.57;55.95
71436;SHT31;59251;51.326;12.370;2023-04-03T16:12:36;4.18;56.11
71436;SHT31;59251;51.326;12.370;2023-04-03T16:15:02;4.34;56.66
71436;SHT31;59251;51.326;12.370;2023-04-03T16:17:28;4.48;56.38
71436;SHT31;59251;51.326;12.370;2023-04-03T16:19:56;4.58;56.64
71436;SHT31;59251;51.326;12.370;2023-04-03T16:22:23;4.34;56.64
71436;SHT31;59251;51.326;12.370;2023-04-03T16:24:49;4.40;56.74
71436;SHT31;59251;51.326;12.370;2023-04-03T16:27:16;4.64;57.01
71436;SHT31;59251;51.326;12.370;2023-04-03T16:29:41;4.47;56.74
71436;SHT31;59251;51.326;12.370;2023-04-03T16:32:07;4.65;57.50
71436;SHT31;59251;51.326;12.370;2023-04-03T16:34:32;4.60;57.49
71436;SHT31;59251;51.326;12.370;2023-04-03T16:36:58;4.44;57.51
71436;SHT31;59251;51.326;12.370;2023-04-03T16:39:24;4.45;57.98
71436;SHT31;59251;51.326;12.370;2023-04-03T16:41:49;4.30;58.26
71436;SHT31;59251;51.326;12.370;2023-04-03T16:44:15;4.34;58.78
71436;SHT31;59251;51.326;12.370;2023-04-03T16:46:40;4.47;58.63
71436;SHT31;59251;51.326;12.370;2023-04-03T16:49:06;4.40;58.61
71436;SHT31;59251;51.326;12.370;2023-04-03T16:51:32;4.18;58.93
71436;SHT31;59251;51.326;12.370;2023-04-03T16:53:57;4.23;59.26
71436;SHT31;59251;51.326;12.370;2023-04-03T16:56:23;4.23;59.53
71436;SHT31;59251;51.326;12.370;2023-04-03T16:58:48;4.20;59.32
71436;SHT31;59251;51.326;12.370;2023-04-03T17:01:16;4.23;59.13
71436;SHT31;59251;51.326;12.370;2023-04-03T17:03:43;4.11;58.90
71436;SHT31;59251;51.326;12.370;2023-04-03T17:06:10;4.23;58.51
71436;SHT31;59251;51.326;12.370;2023-04-03T17:08:44;4.21;58.98
71436;SHT31;59251;51.326;12.370;2023-04-03T17:11:10;4.07;59.37